sensor_id;sensor_type;location;lat;lon;timestamp;P1;durP1;ratioP1;P2;durP2;ratioP2
76107;SDS011;64834;52.516;10.528;2023-04-05T00:00:27;6.40;;;3.53;;
76107;SDS011;64834;52.516;10.528;2023-04-05T00:02:53;6.60;;;3.50;;
76107;SDS011;64834;52.516;10.528;2023-04-05T00:05:19;6.13;;;3.22;;
76107;SDS011;64834;52.516;10.528;2023-04-05T00:07:53;5.25;;;2.92;;
76107;SDS011;64834;52.516;10.528;2023-04-05T00:10:19;8.65;;;3.33;;
76107;SDS011;64834;52.516;10.528;2023-04-05T00:12:44;5.70;;;2.72;;
76107;SDS011;64834;52.516;10.528;2023-04-05T00:15:10;5.43;;;2.85;;
76107;SDS011;64834;52.516;10.528;2023-04-05T00:17:35;7.22;;;2.63;;
76107;SDS011;64834;52.516;10.528;2023-04-05T00:20:01;6.07;;;3.20;;
76107;SDS011;64834;52.516;10.528;2023-04-05T00:22:31;6.38;;;2.53;;
76107;SDS011;64834;52.516;10.528;2023-04-05T00:24:59;5.47;;;2.65;;
76107;SDS011;64834;52.516;10.528;2023-04-05T00:27:25;5.45;;;2.40;;
76107;SDS011;64834;52.516;10.528;2023-04-05T00:29:51;6.43;;;3.20;;
76107;SDS011;64834;52.516;10.528;2023-04-05T00:32:16;6.55;;;3.15;;
76107;SDS011;64834;52.516;10.528;2023-04-05T00:34:41;5.00;;;2.65;;
76107;SDS011;64834;52.516;10.528;2023-04-05T00:37:07;8.45;;;2.97;;
76107;SDS011;64834;52.516;10.528;2023-04-05T00:39:32;6.90;;;2.95;;
76107;SDS011;64834;52.516;10.528;2023-04-05T00:41:57;6.97;;;2.97;;
76107;SDS011;64834;52.516;10.528;2023-04-05T00:44:23;5.28;;;3.00;;
76107;SDS011;64834;52.516;10.528;2023-04-05T00:46:48;6.22;;;2.78;;
76107;SDS011;64834;52.516;10.528;2023-04-05T00:49:14;5.70;;;2.75;;
76107;SDS011;64834;52.516;10.528;2023-04-05T00:51:39;7.35;;;2.83;;
76107;SDS011;64834;52.516;10.528;2023-04-05T00:54:06;6.28;;;2.95;;
76107;SDS011;64834;52.516;10.528;2023-04-05T00:56:32;5.55;;;2.88;;
76107;SDS011;64834;52.516;10.528;2023-04-05T00:58:58;5.65;;;2.97;;
76107;SDS011;64834;52.516;10.528;2023-04-05T01:01:24;6.22;;;3.08;;
76107;SDS011;64834;52.516;10.528;2023-04-05T01:03:52;5.18;;;2.85;;
76107;SDS011;64834;52.516;10.528;2023-04-05T01:11:53;7.53;;;3.22;;
76107;SDS011;64834;52.516;10.528;2023-04-05T01:14:21;7.13;;;3.17;;
76107;SDS011;64834;52.516;10.528;2023-04-05T01:16:46;6.90;;;3.30;;
76107;SDS011;64834;52.516;10.528;2023-04-05T01:19:14;8.23;;;3.65;;
76107;SDS011;64834;52.516;10.528;2023-04-05T01:21:51;6.82;;;3.67;;
76107;SDS011;64834;52.516;10.528;2023-04-05T01:24:43;7.18;;;3.25;;
76107;SDS011;64834;52.516;10.528;2023-04-05T01:30:20;6.03;;;2.90;;
76107;SDS011;64834;52.516;10.528;2023-04-05T01:33:16;9.25;;;2.97;;
76107;SDS011;64834;52.516;10.528;2023-04-05T01:35:58;6.68;;;2.92;;
76107;SDS011;64834;52.516;10.528;2023-04-05T01:38:37;6.65;;;3.53;;
76107;SDS011;64834;52.516;10.528;2023-04-05T01:41:04;6.35;;;3.13;;
76107;SDS011;64834;52.516;10.528;2023-04-05T01:43:30;5.30;;;2.70;;
76107;SDS011;64834;52.516;10.528;2023-04-05T01:45:56;6.00;;;3.03;;
76107;SDS011;64834;52.516;10.528;2023-04-05T01:48:21;6.10;;;2.22;;
76107;SDS011;64834;52.516;10.528;2023-04-05T01:50:46;7.55;;;2.53;;
76107;SDS011;64834;52.516;10.528;2023-04-05T01:53:12;4.35;;;2.45;;
76107;SDS011;64834;52.516;10.528;2023-04-05T01:55:37;3.92;;;2.22;;
76107;SDS011;64834;52.516;10.528;2023-04-05T01:58:02;5.57;;;2.72;;
76107;SDS011;64834;52.516;10.528;2023-04-05T02:00:28;5.50;;;2.95;;
76107;SDS011;64834;52.516;10.528;2023-04-05T02:02:53;5.00;;;2.58;;
76107;SDS011;64834;52.516;10.528;2023-04-05T02:05:19;6.70;;;2.83;;
76107;SDS011;64834;52.516;10.528;2023-04-05T02:07:44;7.15;;;2.72;;
76107;SDS011;64834;52.516;10.528;2023-04-05T02:10:09;7.28;;;2.80;;
76107;SDS011;64834;52.516;10.528;2023-04-05T02:12:35;5.75;;;2.83;;
76107;SDS011;64834;52.516;10.528;2023-04-05T02:15:00;7.32;;;2.75;;
76107;SDS011;64834;52.516;10.528;2023-04-05T02:17:26;7.07;;;2.80;;
76107;SDS011;64834;52.516;10.528;2023-04-05T02:19:58;6.00;;;2.72;;
76107;SDS011;64834;52.516;10.528;2023-04-05T02:22:30;5.50;;;2.50;;
76107;SDS011;64834;52.516;10.528;2023-04-05T02:24:56;5.72;;;2.60;;
76107;SDS011;64834;52.516;10.528;2023-04-05T02:27:21;6.88;;;2.75;;
76107;SDS011;64834;52.516;10.528;2023-04-05T02:29:46;6.22;;;2.67;;
76107;SDS011;64834;52.516;10.528;2023-04-05T02:32:12;8.07;;;3.58;;
76107;SDS011;64834;52.516;10.528;2023-04-05T02:34:37;7.82;;;3.40;;
76107;SDS011;64834;52.516;10.528;2023-04-05T02:37:05;9.10;;;3.78;;
76107;SDS011;64834;52.516;10.528;2023-04-05T02:39:31;7.95;;;3.22;;
76107;SDS011;64834;52.516;10.528;2023-04-05T02:41:56;8.35;;;3.25;;
76107;SDS011;64834;52.516;10.528;2023-04-05T02:44:23;8.93;;;3.58;;
76107;SDS011;64834;52.516;10.528;2023-04-05T02:46:48;8.52;;;3.42;;
76107;SDS011;64834;52.516;10.528;2023-04-05T02:49:13;7.95;;;3.47;;
76107;SDS011;64834;52.516;10.528;2023-04-05T02:51:39;6.88;;;2.90;;
76107;SDS011;64834;52.516;10.528;2023-04-05T02:54:05;8.13;;;3.55;;
76107;SDS011;64834;52.516;10.528;2023-04-05T02:56:30;7.20;;;3.35;;
76107;SDS011;64834;52.516;10.528;2023-04-05T02:58:56;7.90;;;3.45;;
76107;SDS011;64834;52.516;10.528;2023-04-05T03:01:21;9.05;;;3.08;;
76107;SDS011;64834;52.516;10.528;2023-04-05T03:03:47;5.80;;;2.50;;
76107;SDS011;64834;52.516;10.528;2023-04-05T03:06:13;7.32;;;3.17;;
76107;SDS011;64834;52.516;10.528;2023-04-05T03:08:39;5.03;;;2.45;;
76107;SDS011;64834;52.516;10.528;2023-04-05T03:11:08;5.38;;;2.55;;
76107;SDS011;64834;52.516;10.528;2023-04-05T03:13:34;5.90;;;3.00;;
76107;SDS011;64834;52.516;10.528;2023-04-05T03:16:00;5.55;;;2.90;;
76107;SDS011;64834;52.516;10.528;2023-04-05T03:18:26;7.63;;;3.42;;
76107;SDS011;64834;52.516;10.528;2023-04-05T03:20:53;6.35;;;2.70;;
76107;SDS011;64834;52.516;10.528;2023-04-05T03:23:21;8.05;;;2.55;;
76107;SDS011;64834;52.516;10.528;2023-04-05T03:25:58;5.63;;;2.40;;
76107;SDS011;64834;52.516;10.528;2023-04-05T03:28:24;5.57;;;2.65;;
76107;SDS011;64834;52.516;10.528;2023-04-05T03:30:50;4.90;;;2.30;;
76107;SDS011;64834;52.516;10.528;2023-04-05T03:33:16;5.88;;;2.80;;
76107;SDS011;64834;52.516;10.528;2023-04-05T03:35:41;7.13;;;2.95;;
76107;SDS011;64834;52.516;10.528;2023-04-05T03:38:07;6.78;;;2.90;;
76107;SDS011;64834;52.516;10.528;2023-04-05T03:40:32;6.28;;;2.65;;
76107;SDS011;64834;52.516;10.528;2023-04-05T03:42:57;7.15;;;3.00;;
76107;SDS011;64834;52.516;10.528;2023-04-05T03:45:23;6.65;;;2.30;;
76107;SDS011;64834;52.516;10.528;2023-04-05T03:47:49;7.38;;;2.90;;
76107;SDS011;64834;52.516;10.528;2023-04-05T03:50:14;8.18;;;2.95;;
76107;SDS011;64834;52.516;10.528;2023-04-05T03:52:39;6.53;;;3.15;;
76107;SDS011;64834;52.516;10.528;2023-04-05T03:55:05;9.13;;;3.50;;
76107;SDS011;64834;52.516;10.528;2023-04-05T03:57:32;7.95;;;3.38;;
76107;SDS011;64834;52.516;10.528;2023-04-05T03:59:57;8.65;;;3.42;;
76107;SDS011;64834;52.516;10.528;2023-04-05T04:02:22;6.68;;;3.25;;
76107;SDS011;64834;52.516;10.528;2023-04-05T04:04:48;7.68;;;3.35;;
76107;SDS011;64834;52.516;10.528;2023-04-05T04:07:13;8.65;;;3.38;;
76107;SDS011;64834;52.516;10.528;2023-04-05T04:09:39;5.57;;;3.28;;
76107;SDS011;64834;52.516;10.528;2023-04-05T04:12:04;6.07;;;2.65;;
76107;SDS011;64834;52.516;10.528;2023-04-05T04:14:30;7.55;;;2.88;;
76107;SDS011;64834;52.516;10.528;2023-04-05T04:16:55;8.30;;;3.00;;
76107;SDS011;64834;52.516;10.528;2023-04-05T04:19:20;18.30;;;5.45;;
76107;SDS011;64834;52.516;10.528;2023-04-05T04:21:45;6.70;;;2.75;;
76107;SDS011;64834;52.516;10.528;2023-04-05T04:24:16;7.50;;;2.60;;
76107;SDS011;64834;52.516;10.528;2023-04-05T04:26:44;6.07;;;2.17;;
76107;SDS011;64834;52.516;10.528;2023-04-05T04:29:10;6.93;;;2.28;;
76107;SDS011;64834;52.516;10.528;2023-04-05T04:31:37;5.20;;;2.45;;
76107;SDS011;64834;52.516;10.528;2023-04-05T04:34:03;8.98;;;2.53;;
76107;SDS011;64834;52.516;10.528;2023-04-05T04:36:29;5.40;;;2.20;;
76107;SDS011;64834;52.516;10.528;2023-04-05T04:39:03;5.13;;;2.38;;
76107;SDS011;64834;52.516;10.528;2023-04-05T04:41:31;5.68;;;2.15;;
76107;SDS011;64834;52.516;10.528;2023-04-05T04:43:58;5.75;;;1.90;;
76107;SDS011;64834;52.516;10.528;2023-04-05T04:46:27;4.18;;;2.00;;
76107;SDS011;64834;52.516;10.528;2023-04-05T04:48:59;4.72;;;2.35;;
76107;SDS011;64834;52.516;10.528;2023-04-05T04:51:29;5.65;;;2.22;;
76107;SDS011;64834;52.516;10.528;2023-04-05T04:53:55;5.03;;;1.77;;
76107;SDS011;64834;52.516;10.528;2023-04-05T04:56:21;8.30;;;1.95;;
76107;SDS011;64834;52.516;10.528;2023-04-05T04:58:46;4.18;;;2.13;;
76107;SDS011;64834;52.516;10.528;2023-04-05T05:01:11;4.75;;;1.88;;
76107;SDS011;64834;52.516;10.528;2023-04-05T05:03:37;4.40;;;2.25;;
76107;SDS011;64834;52.516;10.528;2023-04-05T05:06:03;3.53;;;1.98;;
76107;SDS011;64834;52.516;10.528;2023-04-05T05:08:28;4.72;;;2.22;;
76107;SDS011;64834;52.516;10.528;2023-04-05T05:10:54;10.68;;;2.28;;
76107;SDS011;64834;52.516;10.528;2023-04-05T05:13:20;4.43;;;1.88;;
76107;SDS011;64834;52.516;10.528;2023-04-05T05:15:45;6.07;;;2.35;;
76107;SDS011;64834;52.516;10.528;2023-04-05T05:18:12;5.70;;;2.35;;
76107;SDS011;64834;52.516;10.528;2023-04-05T05:20:38;3.97;;;1.98;;
76107;SDS011;64834;52.516;10.528;2023-04-05T05:23:03;4.50;;;2.10;;
76107;SDS011;64834;52.516;10.528;2023-04-05T05:25:29;6.13;;;2.22;;
76107;SDS011;64834;52.516;10.528;2023-04-05T05:27:54;5.35;;;2.13;;
76107;SDS011;64834;52.516;10.528;2023-04-05T05:30:20;4.57;;;2.00;;
76107;SDS011;64834;52.516;10.528;2023-04-05T05:32:45;4.25;;;1.75;;
76107;SDS011;64834;52.516;10.528;2023-04-05T05:35:11;6.78;;;2.80;;
76107;SDS011;64834;52.516;10.528;2023-04-05T05:37:36;8.68;;;2.50;;
76107;SDS011;64834;52.516;10.528;2023-04-05T05:40:02;5.72;;;2.50;;
76107;SDS011;64834;52.516;10.528;2023-04-05T05:42:29;5.10;;;1.85;;
76107;SDS011;64834;52.516;10.528;2023-04-05T05:44:56;4.68;;;2.10;;
76107;SDS011;64834;52.516;10.528;2023-04-05T05:47:22;10.45;;;2.40;;
76107;SDS011;64834;52.516;10.528;2023-04-05T05:49:48;7.75;;;2.60;;
76107;SDS011;64834;52.516;10.528;2023-04-05T05:52:16;5.25;;;2.60;;
76107;SDS011;64834;52.516;10.528;2023-04-05T05:54:41;7.72;;;2.97;;
76107;SDS011;64834;52.516;10.528;2023-04-05T05:57:06;8.43;;;3.15;;
76107;SDS011;64834;52.516;10.528;2023-04-05T05:59:32;10.82;;;3.60;;
76107;SDS011;64834;52.516;10.528;2023-04-05T06:01:57;9.77;;;3.92;;
76107;SDS011;64834;52.516;10.528;2023-04-05T06:04:22;19.63;;;4.68;;
76107;SDS011;64834;52.516;10.528;2023-04-05T06:06:48;13.93;;;3.85;;
76107;SDS011;64834;52.516;10.528;2023-04-05T06:09:13;7.07;;;3.22;;
76107;SDS011;64834;52.516;10.528;2023-04-05T06:11:41;10.65;;;3.20;;
76107;SDS011;64834;52.516;10.528;2023-04-05T06:14:06;6.97;;;3.25;;
76107;SDS011;64834;52.516;10.528;2023-04-05T06:16:32;9.15;;;3.42;;
76107;SDS011;64834;52.516;10.528;2023-04-05T06:18:59;7.18;;;3.67;;
76107;SDS011;64834;52.516;10.528;2023-04-05T06:21:25;11.43;;;3.47;;
76107;SDS011;64834;52.516;10.528;2023-04-05T06:23:51;6.07;;;3.00;;
76107;SDS011;64834;52.516;10.528;2023-04-05T06:26:17;5.15;;;2.60;;
76107;SDS011;64834;52.516;10.528;2023-04-05T06:28:44;10.38;;;2.17;;
76107;SDS011;64834;52.516;10.528;2023-04-05T06:31:12;4.65;;;2.63;;
76107;SDS011;64834;52.516;10.528;2023-04-05T06:33:39;5.63;;;2.83;;
76107;SDS011;64834;52.516;10.528;2023-04-05T06:36:04;7.15;;;2.92;;
76107;SDS011;64834;52.516;10.528;2023-04-05T06:38:30;9.40;;;3.25;;
76107;SDS011;64834;52.516;10.528;2023-04-05T06:40:55;5.75;;;2.30;;
76107;SDS011;64834;52.516;10.528;2023-04-05T06:43:21;6.20;;;2.38;;
76107;SDS011;64834;52.516;10.528;2023-04-05T06:45:46;7.47;;;2.50;;
76107;SDS011;64834;52.516;10.528;2023-04-05T06:48:11;4.32;;;2.40;;
76107;SDS011;64834;52.516;10.528;2023-04-05T06:50:37;4.55;;;2.38;;
76107;SDS011;64834;52.516;10.528;2023-04-05T06:53:02;5.32;;;2.30;;
76107;SDS011;64834;52.516;10.528;2023-04-05T06:55:28;5.82;;;3.45;;
76107;SDS011;64834;52.516;10.528;2023-04-05T06:57:53;6.07;;;2.47;;
76107;SDS011;64834;52.516;10.528;2023-04-05T07:00:19;5.45;;;2.50;;
76107;SDS011;64834;52.516;10.528;2023-04-05T07:02:45;7.03;;;2.75;;
76107;SDS011;64834;52.516;10.528;2023-04-05T07:05:10;7.18;;;3.75;;
76107;SDS011;64834;52.516;10.528;2023-04-05T07:07:41;6.68;;;2.35;;
76107;SDS011;64834;52.516;10.528;2023-04-05T07:10:08;6.22;;;2.97;;
76107;SDS011;64834;52.516;10.528;2023-04-05T07:12:34;6.57;;;2.65;;
76107;SDS011;64834;52.516;10.528;2023-04-05T07:15:00;5.22;;;2.25;;
76107;SDS011;64834;52.516;10.528;2023-04-05T07:17:26;5.32;;;2.35;;
76107;SDS011;64834;52.516;10.528;2023-04-05T07:19:51;5.20;;;2.58;;
76107;SDS011;64834;52.516;10.528;2023-04-05T07:22:16;4.80;;;2.53;;
76107;SDS011;64834;52.516;10.528;2023-04-05T07:24:43;5.53;;;2.58;;
76107;SDS011;64834;52.516;10.528;2023-04-05T07:27:09;5.35;;;2.50;;
76107;SDS011;64834;52.516;10.528;2023-04-05T07:29:35;9.15;;;3.00;;
76107;SDS011;64834;52.516;10.528;2023-04-05T07:32:04;7.95;;;3.50;;
76107;SDS011;64834;52.516;10.528;2023-04-05T07:34:33;8.35;;;3.50;;
76107;SDS011;64834;52.516;10.528;2023-04-05T07:36:59;6.80;;;2.72;;
76107;SDS011;64834;52.516;10.528;2023-04-05T07:39:24;7.75;;;2.72;;
76107;SDS011;64834;52.516;10.528;2023-04-05T07:41:49;7.03;;;2.67;;
76107;SDS011;64834;52.516;10.528;2023-04-05T07:44:15;7.65;;;2.90;;
76107;SDS011;64834;52.516;10.528;2023-04-05T07:46:41;5.57;;;2.90;;
76107;SDS011;64834;52.516;10.528;2023-04-05T07:49:08;5.55;;;3.10;;
76107;SDS011;64834;52.516;10.528;2023-04-05T07:51:37;5.78;;;2.33;;
76107;SDS011;64834;52.516;10.528;2023-04-05T07:54:02;6.30;;;2.63;;
76107;SDS011;64834;52.516;10.528;2023-04-05T07:56:32;5.43;;;2.53;;
76107;SDS011;64834;52.516;10.528;2023-04-05T07:58:57;6.55;;;2.65;;
76107;SDS011;64834;52.516;10.528;2023-04-05T08:01:23;3.90;;;1.88;;
76107;SDS011;64834;52.516;10.528;2023-04-05T08:03:52;5.60;;;1.90;;
76107;SDS011;64834;52.516;10.528;2023-04-05T08:06:17;6.70;;;2.20;;
76107;SDS011;64834;52.516;10.528;2023-04-05T08:08:43;6.13;;;2.10;;
76107;SDS011;64834;52.516;10.528;2023-04-05T08:11:09;6.75;;;2.72;;
76107;SDS011;64834;52.516;10.528;2023-04-05T08:13:35;5.70;;;2.42;;
76107;SDS011;64834;52.516;10.528;2023-04-05T08:16:02;6.80;;;2.33;;
76107;SDS011;64834;52.516;10.528;2023-04-05T08:18:28;3.35;;;1.80;;
76107;SDS011;64834;52.516;10.528;2023-04-05T08:20:54;5.55;;;1.75;;
76107;SDS011;64834;52.516;10.528;2023-04-05T08:23:20;4.82;;;2.17;;
76107;SDS011;64834;52.516;10.528;2023-04-05T08:25:45;3.97;;;2.20;;
76107;SDS011;64834;52.516;10.528;2023-04-05T08:28:11;5.72;;;2.33;;
76107;SDS011;64834;52.516;10.528;2023-04-05T08:30:37;6.22;;;2.75;;
76107;SDS011;64834;52.516;10.528;2023-04-05T08:33:02;6.50;;;2.63;;
76107;SDS011;64834;52.516;10.528;2023-04-05T08:35:28;5.85;;;2.60;;
76107;SDS011;64834;52.516;10.528;2023-04-05T08:37:54;6.20;;;2.50;;
76107;SDS011;64834;52.516;10.528;2023-04-05T08:40:19;5.93;;;2.42;;
76107;SDS011;64834;52.516;10.528;2023-04-05T08:42:45;6.50;;;2.85;;
76107;SDS011;64834;52.516;10.528;2023-04-05T08:45:16;5.32;;;2.40;;
76107;SDS011;64834;52.516;10.528;2023-04-05T08:47:43;5.90;;;2.95;;
76107;SDS011;64834;52.516;10.528;2023-04-05T08:50:10;4.63;;;2.22;;
76107;SDS011;64834;52.516;10.528;2023-04-05T08:52:37;7.78;;;2.92;;
76107;SDS011;64834;52.516;10.528;2023-04-05T08:55:07;4.45;;;2.25;;
76107;SDS011;64834;52.516;10.528;2023-04-05T08:57:32;5.13;;;2.08;;
76107;SDS011;64834;52.516;10.528;2023-04-05T09:00:03;6.00;;;2.13;;
76107;SDS011;64834;52.516;10.528;2023-04-05T09:02:33;3.22;;;1.45;;
76107;SDS011;64834;52.516;10.528;2023-04-05T09:04:59;3.72;;;1.33;;
76107;SDS011;64834;52.516;10.528;2023-04-05T09:07:26;4.32;;;1.35;;
76107;SDS011;64834;52.516;10.528;2023-04-05T09:09:54;3.38;;;1.15;;
76107;SDS011;64834;52.516;10.528;2023-04-05T09:12:24;5.10;;;1.90;;
76107;SDS011;64834;52.516;10.528;2023-04-05T09:14:50;3.70;;;1.23;;
76107;SDS011;64834;52.516;10.528;2023-04-05T09:17:16;3.92;;;1.10;;
76107;SDS011;64834;52.516;10.528;2023-04-05T09:19:43;2.92;;;0.98;;
76107;SDS011;64834;52.516;10.528;2023-04-05T09:22:09;3.20;;;1.20;;
76107;SDS011;64834;52.516;10.528;2023-04-05T09:24:36;2.78;;;0.75;;
76107;SDS011;64834;52.516;10.528;2023-04-05T09:27:12;2.78;;;0.90;;
76107;SDS011;64834;52.516;10.528;2023-04-05T09:29:40;2.13;;;0.75;;
76107;SDS011;64834;52.516;10.528;2023-04-05T09:32:10;2.60;;;1.30;;
76107;SDS011;64834;52.516;10.528;2023-04-05T09:34:36;4.47;;;1.25;;
76107;SDS011;64834;52.516;10.528;2023-04-05T09:37:02;2.92;;;1.35;;
76107;SDS011;64834;52.516;10.528;2023-04-05T09:39:38;4.05;;;1.65;;
76107;SDS011;64834;52.516;10.528;2023-04-05T09:44:47;3.50;;;1.50;;
76107;SDS011;64834;52.516;10.528;2023-04-05T09:47:16;3.42;;;1.15;;
76107;SDS011;64834;52.516;10.528;2023-04-05T09:49:43;3.47;;;1.30;;
76107;SDS011;64834;52.516;10.528;2023-04-05T09:52:21;3.85;;;1.50;;
76107;SDS011;64834;52.516;10.528;2023-04-05T09:54:48;4.25;;;1.48;;
76107;SDS011;64834;52.516;10.528;2023-04-05T09:57:16;2.53;;;1.20;;
76107;SDS011;64834;52.516;10.528;2023-04-05T09:59:43;4.43;;;1.23;;
76107;SDS011;64834;52.516;10.528;2023-04-05T10:02:11;3.47;;;1.08;;
76107;SDS011;64834;52.516;10.528;2023-04-05T10:04:40;3.00;;;1.30;;
76107;SDS011;64834;52.516;10.528;2023-04-05T10:07:10;3.50;;;1.42;;
76107;SDS011;64834;52.516;10.528;2023-04-05T10:09:38;3.75;;;1.10;;
76107;SDS011;64834;52.516;10.528;2023-04-05T10:12:06;3.15;;;1.23;;
76107;SDS011;64834;52.516;10.528;2023-04-05T10:14:33;2.55;;;1.20;;
76107;SDS011;64834;52.516;10.528;2023-04-05T10:17:13;4.35;;;1.23;;
76107;SDS011;64834;52.516;10.528;2023-04-05T10:19:56;2.30;;;1.08;;
76107;SDS011;64834;52.516;10.528;2023-04-05T10:22:40;2.30;;;1.00;;
76107;SDS011;64834;52.516;10.528;2023-04-05T10:25:24;2.38;;;1.25;;
76107;SDS011;64834;52.516;10.528;2023-04-05T10:28:01;3.08;;;1.23;;
76107;SDS011;64834;52.516;10.528;2023-04-05T10:30:33;2.88;;;1.23;;
76107;SDS011;64834;52.516;10.528;2023-04-05T10:40:51;3.45;;;1.40;;
76107;SDS011;64834;52.516;10.528;2023-04-05T10:43:20;2.53;;;1.10;;
76107;SDS011;64834;52.516;10.528;2023-04-05T10:45:50;6.05;;;1.70;;
76107;SDS011;64834;52.516;10.528;2023-04-05T10:48:23;3.75;;;1.98;;
76107;SDS011;64834;52.516;10.528;2023-04-05T10:51:00;2.85;;;1.27;;
76107;SDS011;64834;52.516;10.528;2023-04-05T10:53:27;3.80;;;1.40;;
76107;SDS011;64834;52.516;10.528;2023-04-05T10:55:55;3.13;;;1.40;;
76107;SDS011;64834;52.516;10.528;2023-04-05T10:58:21;3.92;;;1.63;;
76107;SDS011;64834;52.516;10.528;2023-04-05T11:00:49;3.00;;;1.23;;
76107;SDS011;64834;52.516;10.528;2023-04-05T11:06:23;2.50;;;1.30;;
76107;SDS011;64834;52.516;10.528;2023-04-05T11:08:58;2.95;;;1.25;;
76107;SDS011;64834;52.516;10.528;2023-04-05T11:11:39;2.20;;;1.25;;
76107;SDS011;64834;52.516;10.528;2023-04-05T11:16:59;3.00;;;1.40;;
76107;SDS011;64834;52.516;10.528;2023-04-05T11:20:11;3.72;;;1.35;;
76107;SDS011;64834;52.516;10.528;2023-04-05T11:22:26;3.65;;;1.30;;
76107;SDS011;64834;52.516;10.528;2023-04-05T11:24:53;2.40;;;1.42;;
76107;SDS011;64834;52.516;10.528;2023-04-05T11:27:29;3.38;;;1.50;;
76107;SDS011;64834;52.516;10.528;2023-04-05T11:29:57;2.72;;;1.42;;
76107;SDS011;64834;52.516;10.528;2023-04-05T11:32:23;3.08;;;1.55;;
76107;SDS011;64834;52.516;10.528;2023-04-05T11:35:06;3.13;;;1.20;;
76107;SDS011;64834;52.516;10.528;2023-04-05T11:38:04;4.05;;;1.52;;
76107;SDS011;64834;52.516;10.528;2023-04-05T11:40:35;4.38;;;1.60;;
76107;SDS011;64834;52.516;10.528;2023-04-05T11:43:04;3.15;;;1.35;;
76107;SDS011;64834;52.516;10.528;2023-04-05T11:45:32;4.90;;;1.63;;
76107;SDS011;64834;52.516;10.528;2023-04-05T11:48:12;4.82;;;1.52;;
76107;SDS011;64834;52.516;10.528;2023-04-05T11:50:38;5.60;;;1.67;;
76107;SDS011;64834;52.516;10.528;2023-04-05T11:53:12;3.38;;;1.45;;
76107;SDS011;64834;52.516;10.528;2023-04-05T11:55:40;2.95;;;1.42;;
76107;SDS011;64834;52.516;10.528;2023-04-05T11:58:10;2.45;;;1.33;;
76107;SDS011;64834;52.516;10.528;2023-04-05T12:00:36;5.05;;;1.85;;
76107;SDS011;64834;52.516;10.528;2023-04-05T12:03:02;3.72;;;1.63;;
76107;SDS011;64834;52.516;10.528;2023-04-05T12:05:43;3.22;;;1.65;;
76107;SDS011;64834;52.516;10.528;2023-04-05T12:08:09;2.92;;;1.38;;
76107;SDS011;64834;52.516;10.528;2023-04-05T12:10:34;3.65;;;1.80;;
76107;SDS011;64834;52.516;10.528;2023-04-05T12:12:59;4.68;;;1.73;;
76107;SDS011;64834;52.516;10.528;2023-04-05T12:15:25;3.83;;;1.83;;
76107;SDS011;64834;52.516;10.528;2023-04-05T12:17:50;3.65;;;1.70;;
76107;SDS011;64834;52.516;10.528;2023-04-05T12:20:18;3.53;;;1.45;;
76107;SDS011;64834;52.516;10.528;2023-04-05T12:22:46;2.65;;;1.35;;
76107;SDS011;64834;52.516;10.528;2023-04-05T12:25:12;6.43;;;1.60;;
76107;SDS011;64834;52.516;10.528;2023-04-05T12:27:39;3.22;;;1.38;;
76107;SDS011;64834;52.516;10.528;2023-04-05T12:30:17;4.47;;;1.38;;
76107;SDS011;64834;52.516;10.528;2023-04-05T12:32:49;2.95;;;1.45;;
76107;SDS011;64834;52.516;10.528;2023-04-05T12:35:16;3.25;;;1.50;;
76107;SDS011;64834;52.516;10.528;2023-04-05T12:40:09;2.83;;;1.33;;
76107;SDS011;64834;52.516;10.528;2023-04-05T12:42:35;3.22;;;1.60;;
76107;SDS011;64834;52.516;10.528;2023-04-05T12:45:02;6.90;;;1.70;;
76107;SDS011;64834;52.516;10.528;2023-04-05T12:47:31;4.75;;;1.65;;
76107;SDS011;64834;52.516;10.528;2023-04-05T12:49:57;2.85;;;1.33;;
76107;SDS011;64834;52.516;10.528;2023-04-05T12:52:25;3.25;;;1.67;;
76107;SDS011;64834;52.516;10.528;2023-04-05T12:54:54;2.95;;;1.50;;
76107;SDS011;64834;52.516;10.528;2023-04-05T12:57:28;2.83;;;1.58;;
76107;SDS011;64834;52.516;10.528;2023-04-05T12:59:54;3.28;;;1.27;;
76107;SDS011;64834;52.516;10.528;2023-04-05T13:02:20;7.45;;;2.20;;
76107;SDS011;64834;52.516;10.528;2023-04-05T13:04:45;4.68;;;1.60;;
76107;SDS011;64834;52.516;10.528;2023-04-05T13:07:10;3.22;;;1.70;;
76107;SDS011;64834;52.516;10.528;2023-04-05T13:09:36;4.18;;;2.10;;
76107;SDS011;64834;52.516;10.528;2023-04-05T13:12:01;4.43;;;1.70;;
76107;SDS011;64834;52.516;10.528;2023-04-05T13:14:26;3.75;;;1.70;;
76107;SDS011;64834;52.516;10.528;2023-04-05T13:16:52;4.28;;;2.20;;
76107;SDS011;64834;52.516;10.528;2023-04-05T13:19:17;3.13;;;1.42;;
76107;SDS011;64834;52.516;10.528;2023-04-05T13:21:42;4.53;;;1.63;;
76107;SDS011;64834;52.516;10.528;2023-04-05T13:24:08;3.78;;;1.90;;
76107;SDS011;64834;52.516;10.528;2023-04-05T13:26:33;5.68;;;1.63;;
76107;SDS011;64834;52.516;10.528;2023-04-05T13:28:59;3.03;;;1.55;;
76107;SDS011;64834;52.516;10.528;2023-04-05T13:31:24;3.92;;;2.25;;
76107;SDS011;64834;52.516;10.528;2023-04-05T13:33:50;3.70;;;1.50;;
76107;SDS011;64834;52.516;10.528;2023-04-05T13:36:15;3.53;;;1.83;;
76107;SDS011;64834;52.516;10.528;2023-04-05T13:38:40;5.53;;;1.70;;
76107;SDS011;64834;52.516;10.528;2023-04-05T13:41:06;6.22;;;1.95;;
76107;SDS011;64834;52.516;10.528;2023-04-05T13:43:31;4.82;;;1.70;;
76107;SDS011;64834;52.516;10.528;2023-04-05T13:45:57;3.03;;;1.58;;
76107;SDS011;64834;52.516;10.528;2023-04-05T13:48:22;2.72;;;1.70;;
76107;SDS011;64834;52.516;10.528;2023-04-05T13:50:47;5.95;;;2.20;;
76107;SDS011;64834;52.516;10.528;2023-04-05T13:53:12;3.83;;;1.98;;
76107;SDS011;64834;52.516;10.528;2023-04-05T13:55:38;3.95;;;1.70;;
76107;SDS011;64834;52.516;10.528;2023-04-05T13:58:03;4.72;;;1.95;;
76107;SDS011;64834;52.516;10.528;2023-04-05T14:00:29;2.85;;;1.65;;
76107;SDS011;64834;52.516;10.528;2023-04-05T14:02:54;2.40;;;1.42;;
76107;SDS011;64834;52.516;10.528;2023-04-05T14:05:19;2.83;;;1.58;;
76107;SDS011;64834;52.516;10.528;2023-04-05T14:07:45;3.25;;;2.03;;
76107;SDS011;64834;52.516;10.528;2023-04-05T14:10:10;3.78;;;1.90;;
76107;SDS011;64834;52.516;10.528;2023-04-05T14:12:36;2.92;;;1.73;;
76107;SDS011;64834;52.516;10.528;2023-04-05T14:15:01;3.70;;;2.10;;
76107;SDS011;64834;52.516;10.528;2023-04-05T14:17:27;3.40;;;1.80;;
76107;SDS011;64834;52.516;10.528;2023-04-05T14:19:52;3.03;;;1.98;;
76107;SDS011;64834;52.516;10.528;2023-04-05T14:22:17;4.15;;;1.90;;
76107;SDS011;64834;52.516;10.528;2023-04-05T14:24:43;3.38;;;1.77;;
76107;SDS011;64834;52.516;10.528;2023-04-05T14:27:08;2.65;;;1.60;;
76107;SDS011;64834;52.516;10.528;2023-04-05T14:29:33;3.28;;;1.70;;
76107;SDS011;64834;52.516;10.528;2023-04-05T14:31:59;3.17;;;2.15;;
76107;SDS011;64834;52.516;10.528;2023-04-05T14:34:24;4.60;;;1.65;;
76107;SDS011;64834;52.516;10.528;2023-04-05T14:36:49;4.10;;;1.95;;
76107;SDS011;64834;52.516;10.528;2023-04-05T14:39:15;3.97;;;1.83;;
76107;SDS011;64834;52.516;10.528;2023-04-05T14:41:40;4.35;;;1.90;;
76107;SDS011;64834;52.516;10.528;2023-04-05T14:44:05;3.63;;;2.28;;
76107;SDS011;64834;52.516;10.528;2023-04-05T14:46:31;2.17;;;0.98;;
76107;SDS011;64834;52.516;10.528;2023-04-05T14:48:56;3.92;;;1.67;;
76107;SDS011;64834;52.516;10.528;2023-04-05T14:51:22;3.40;;;1.88;;
76107;SDS011;64834;52.516;10.528;2023-04-05T14:53:47;3.05;;;1.83;;
76107;SDS011;64834;52.516;10.528;2023-04-05T14:56:12;3.30;;;2.10;;
76107;SDS011;64834;52.516;10.528;2023-04-05T14:58:38;3.38;;;1.83;;
76107;SDS011;64834;52.516;10.528;2023-04-05T15:01:03;2.72;;;1.75;;